Time;durP1;ratioP1;P1;durP2;ratioP2;P2;SDS_P1;SDS_P2;PMS_P1;PMS_P2;Temp;Humidity;BMP_temperature;BMP_pressure;BME280_temperature;BME280_humidity;BME280_pressure;Samples;Min_cycle;Max_cycle;Signal;HPM_P1;HPM_P2
2023/03/04 00:01:12;;;;;;;5.47;5.07;;;19.10;36.00;;;;;;4994467;28;20242;-70
2023/03/04 00:03:38;;;;;;;5.17;4.77;;;19.10;36.00;;;;;;4996495;28;20348;-69
2023/03/04 00:06:04;;;;;;;5.67;5.17;;;19.00;35.80;;;;;;4990834;28;20571;-66
2023/03/04 00:08:29;;;;;;;5.63;5.23;;;19.10;36.00;;;;;;4988975;28;20220;-69
2023/03/04 00:10:55;;;;;;;4.50;4.20;;;19.00;35.80;;;;;;4986242;28;20796;-69
2023/03/04 00:13:21;;;;;;;5.47;4.97;;;19.10;35.90;;;;;;4999234;28;20687;-69
2023/03/04 00:15:47;;;;;;;5.10;4.80;;;19.10;35.90;;;;;;4998478;28;20227;-68
2023/03/04 00:18:13;;;;;;;5.00;4.70;;;19.10;35.90;;;;;;5000530;28;20227;-69
2023/03/04 00:20:39;;;;;;;5.23;4.83;;;19.10;36.00;;;;;;4995320;28;23124;-69
2023/03/04 00:23:05;;;;;;;4.90;4.60;;;19.10;35.90;;;;;;4999147;28;20435;-69
2023/03/04 00:25:30;;;;;;;5.90;5.40;;;19.10;36.00;;;;;;4995105;28;20215;-69
2023/03/04 00:27:57;;;;;;;5.93;5.43;;;19.10;36.00;;;;;;5000505;28;20230;-68
2023/03/04 00:30:23;;;;;;;4.20;3.90;;;19.10;36.00;;;;;;4987797;28;20755;-69
2023/03/04 00:32:48;;;;;;;5.30;4.90;;;19.10;35.90;;;;;;4999583;28;20453;-69
2023/03/04 00:35:14;;;;;;;4.33;4.03;;;19.10;35.90;;;;;;4995356;28;20959;-69
2023/03/04 00:37:40;;;;;;;4.57;4.27;;;19.10;35.80;;;;;;5004238;28;20285;-68
2023/03/04 00:40:06;;;;;;;4.77;4.47;;;19.10;35.90;;;;;;4990292;28;20223;-70
2023/03/04 00:42:31;;;;;;;4.73;4.43;;;19.10;35.90;;;;;;4994790;28;21253;-69
2023/03/04 00:44:57;;;;;;;4.73;4.43;;;19.10;35.80;;;;;;4992699;28;20476;-69
2023/03/04 00:47:22;;;;;;;4.70;4.40;;;19.10;35.80;;;;;;5007773;28;20226;-69
2023/03/04 00:49:48;;;;;;;4.43;4.13;;;19.10;35.90;;;;;;5004061;28;20349;-67
2023/03/04 00:52:14;;;;;;;3.80;3.60;;;19.10;35.80;;;;;;5004811;28;22373;-69
2023/03/04 00:54:39;;;;;;;4.17;3.87;;;19.10;35.80;;;;;;4993650;28;20224;-69
2023/03/04 00:57:05;;;;;;;3.67;3.47;;;19.10;35.80;;;;;;4994237;28;20227;-69
2023/03/04 00:59:30;;;;;;;4.40;4.10;;;19.10;36.00;;;;;;4994185;28;20359;-69
2023/03/04 01:01:56;;;;;;;4.90;4.50;;;19.10;36.00;;;;;;4995193;28;20266;-69
2023/03/04 01:04:21;;;;;;;3.90;3.50;;;19.10;35.80;;;;;;4995927;28;20219;-69
2023/03/04 01:06:47;;;;;;;3.70;3.50;;;19.10;35.90;;;;;;4987115;28;20224;-69
2023/03/04 01:09:12;;;;;;;4.47;4.17;;;19.10;35.80;;;;;;5000606;28;20684;-69
2023/03/04 01:11:38;;;;;;;5.00;4.60;;;19.10;35.80;;;;;;4999576;28;20246;-69
2023/03/04 01:14:03;;;;;;;4.23;3.93;;;19.10;35.90;;;;;;4996611;28;20278;-70
2023/03/04 01:16:29;;;;;;;4.37;3.97;;;19.10;36.00;;;;;;5000751;28;20273;-70
2023/03/04 01:18:55;;;;;;;4.40;4.10;;;19.10;35.90;;;;;;4993441;28;20232;-69
2023/03/04 01:21:20;;;;;;;4.00;3.70;;;19.10;35.90;;;;;;4993289;28;20711;-67
2023/03/04 01:23:46;;;;;;;4.17;3.97;;;19.10;35.90;;;;;;4991237;28;20224;-69
2023/03/04 01:26:11;;;;;;;3.77;3.57;;;19.10;36.00;;;;;;4992329;28;20670;-68
2023/03/04 01:28:37;;;;;;;4.23;3.80;;;19.00;35.90;;;;;;4993049;28;20297;-68
2023/03/04 01:31:03;;;;;;;4.00;3.70;;;19.00;35.90;;;;;;4983678;28;20639;-70
2023/03/04 01:33:30;;;;;;;4.27;3.90;;;19.00;35.80;;;;;;4992474;28;20237;-68
2023/03/04 01:35:57;;;;;;;3.97;3.77;;;19.00;35.90;;;;;;4992535;28;20432;-68
2023/03/04 01:38:22;;;;;;;3.87;3.57;;;19.00;35.90;;;;;;4996437;28;20519;-68
2023/03/04 01:40:48;;;;;;;3.60;3.40;;;19.00;35.90;;;;;;4986694;28;20469;-65
2023/03/04 01:43:19;;;;;;;3.57;3.37;;;19.00;35.90;;;;;;4987913;28;20620;-67
2023/03/04 01:45:47;;;;;;;4.47;4.07;;;19.00;35.90;;;;;;4992164;28;20455;-69
2023/03/04 01:48:16;;;;;;;3.70;3.50;;;19.00;35.90;;;;;;4987308;28;20439;-68
2023/03/04 01:50:42;;;;;;;4.27;3.90;;;19.00;35.90;;;;;;4999829;28;20998;-67
2023/03/04 01:53:25;;;;;;;4.27;3.50;;;19.00;35.90;;;;;;5005218;28;20806;-69
2023/03/04 01:56:00;;;;;;;4.80;3.60;;;19.00;35.90;;;;;;5001606;28;20228;-70
2023/03/04 01:58:30;;;;;;;3.00;2.80;;;19.00;35.90;;;;;;4995989;28;21006;-70
2023/03/04 02:00:56;;;;;;;3.50;3.30;;;19.00;35.90;;;;;;4986226;28;20527;-70
2023/03/04 02:03:22;;;;;;;3.50;3.30;;;19.00;35.90;;;;;;4988201;28;21565;-69
2023/03/04 02:05:50;;;;;;;3.47;3.27;;;19.00;35.90;;;;;;4988483;28;21074;-69
2023/03/04 02:08:18;;;;;;;3.70;3.40;;;19.00;36.00;;;;;;4994564;28;20322;-69
2023/03/04 02:10:44;;;;;;;3.20;3.00;;;19.00;36.70;;;;;;4983124;28;20486;-69
2023/03/04 02:13:11;;;;;;;3.50;3.30;;;19.00;35.90;;;;;;4988632;28;20482;-69
2023/03/04 02:15:36;;;;;;;4.40;3.27;;;19.10;36.00;;;;;;4995048;28;20538;-70
2023/03/04 02:18:06;;;;;;;3.33;3.13;;;19.00;35.90;;;;;;4991020;28;20445;-70
2023/03/04 02:20:44;;;;;;;2.80;2.60;;;19.00;35.90;;;;;;4993464;28;20301;-69
2023/03/04 02:23:47;;;;;;;3.30;3.10;;;19.00;35.90;;;;;;4998789;28;20430;-69
2023/03/04 02:26:20;;;;;;;3.13;2.93;;;19.00;35.80;;;;;;4998846;28;20955;-69
2023/03/04 02:28:48;;;;;;;3.00;2.80;;;19.00;35.90;;;;;;4994137;28;20472;-69
2023/03/04 02:31:31;;;;;;;2.70;2.50;;;19.00;35.90;;;;;;4991045;28;20440;-69
2023/03/04 02:34:00;;;;;;;3.97;3.03;;;19.00;35.90;;;;;;4996590;28;20432;-68
2023/03/04 02:36:26;;;;;;;2.60;2.40;;;19.00;35.90;;;;;;4994019;28;20417;-70
2023/03/04 02:38:53;;;;;;;3.17;2.87;;;19.00;35.90;;;;;;4997234;28;20451;-70
2023/03/04 02:41:25;;;;;;;3.00;2.80;;;19.00;35.90;;;;;;4991483;28;20427;-69
2023/03/04 02:43:53;;;;;;;2.93;2.73;;;19.00;36.00;;;;;;4997694;28;20442;-70
2023/03/04 02:46:19;;;;;;;2.70;2.60;;;19.00;35.90;;;;;;4991908;28;20503;-68
2023/03/04 02:48:45;;;;;;;3.17;2.80;;;19.00;36.00;;;;;;4998575;28;20960;-69
2023/03/04 02:51:10;;;;;;;3.07;2.87;;;19.00;35.90;;;;;;4997064;28;20231;-69
2023/03/04 02:53:36;;;;;;;3.20;3.00;;;19.00;36.00;;;;;;4993141;28;20220;-70
2023/03/04 02:56:02;;;;;;;2.50;2.40;;;19.00;36.00;;;;;;5001169;28;20242;-70
2023/03/04 02:58:28;;;;;;;2.73;2.53;;;19.00;36.00;;;;;;4998721;28;20238;-68
2023/03/04 03:00:53;;;;;;;2.97;2.77;;;19.00;36.00;;;;;;4999623;28;20458;-69
2023/03/04 03:03:19;;;;;;;3.00;2.80;;;19.00;36.00;;;;;;5002488;28;20307;-70
2023/03/04 03:05:44;;;;;;;2.57;2.37;;;19.00;36.00;;;;;;5002527;28;20243;-70
2023/03/04 03:08:10;;;;;;;3.30;3.07;;;19.00;36.00;;;;;;4994150;28;20231;-70
2023/03/04 03:10:36;;;;;;;2.90;2.70;;;19.00;36.00;;;;;;4992172;28;20265;-69
2023/03/04 03:13:01;;;;;;;2.90;2.77;;;19.00;36.00;;;;;;4998899;28;20219;-69
2023/03/04 03:15:27;;;;;;;2.50;2.30;;;19.00;36.00;;;;;;4989513;28;20677;-69
2023/03/04 03:17:52;;;;;;;4.10;2.80;;;19.00;36.00;;;;;;5002107;28;20227;-71
2023/03/04 03:20:19;;;;;;;2.60;2.40;;;19.00;36.00;;;;;;5000670;28;20226;-68
2023/03/04 03:22:44;;;;;;;2.40;2.20;;;19.00;36.00;;;;;;4998098;28;20220;-70
2023/03/04 03:25:12;;;;;;;3.73;2.10;;;19.00;36.00;;;;;;4995686;28;20982;-70
2023/03/04 03:27:37;;;;;;;2.90;2.60;;;19.00;36.00;;;;;;5003713;28;20234;-70
2023/03/04 03:30:04;;;;;;;2.43;2.23;;;19.00;36.00;;;;;;4992234;28;21036;-70
2023/03/04 03:32:30;;;;;;;2.10;2.00;;;19.00;36.00;;;;;;4989177;28;20230;-71
2023/03/04 03:34:55;;;;;;;2.80;2.50;;;19.00;36.10;;;;;;5000553;28;20442;-70
2023/03/04 03:37:21;;;;;;;2.40;2.20;;;19.00;36.00;;;;;;4993655;28;20612;-70
2023/03/04 03:39:46;;;;;;;2.40;2.30;;;19.00;36.00;;;;;;4984985;28;20227;-69
2023/03/04 03:42:12;;;;;;;2.40;2.30;;;19.00;36.00;;;;;;4994988;28;20680;-70
2023/03/04 03:44:37;;;;;;;2.53;2.33;;;19.00;36.00;;;;;;4995942;28;20231;-70
2023/03/04 03:47:03;;;;;;;2.47;2.37;;;19.00;36.00;;;;;;4999192;28;20239;-69
2023/03/04 03:49:29;;;;;;;2.20;2.10;;;19.00;36.00;;;;;;4989799;28;20371;-72
2023/03/04 03:51:54;;;;;;;2.20;2.10;;;18.90;35.90;;;;;;4997911;28;20234;-72
2023/03/04 03:54:20;;;;;;;2.63;1.90;;;19.00;36.10;;;;;;4995953;28;20259;-71
2023/03/04 03:56:45;;;;;;;2.30;2.20;;;19.00;36.00;;;;;;4999422;28;20242;-72
2023/03/04 03:59:11;;;;;;;2.13;1.93;;;19.00;36.00;;;;;;4996847;28;20228;-71
2023/03/04 04:01:36;;;;;;;1.80;1.70;;;19.00;36.00;;;;;;4994243;28;20302;-72
2023/03/04 04:04:02;;;;;;;2.30;2.20;;;19.00;36.00;;;;;;4997276;28;20715;-71
2023/03/04 04:06:28;;;;;;;3.67;3.47;;;19.00;36.00;;;;;;5007657;28;20319;-71
2023/03/04 04:08:53;;;;;;;2.60;2.40;;;19.00;36.00;;;;;;4994436;28;20215;-68
2023/03/04 04:11:19;;;;;;;2.37;2.13;;;19.00;36.00;;;;;;4992310;28;21638;-70
2023/03/04 04:13:44;;;;;;;2.73;2.27;;;19.00;36.00;;;;;;4987127;28;20219;-70
2023/03/04 04:16:10;;;;;;;2.00;1.90;;;19.00;36.00;;;;;;4995130;28;20223;-70
2023/03/04 04:18:36;;;;;;;2.10;1.90;;;19.00;36.00;;;;;;4989295;28;20223;-71
2023/03/04 04:21:03;;;;;;;2.13;2.03;;;19.00;36.00;;;;;;4989752;28;20766;-69
2023/03/04 04:23:28;;;;;;;1.70;1.60;;;19.00;36.00;;;;;;4992734;28;20269;-69
2023/03/04 04:25:54;;;;;;;1.83;1.73;;;19.00;36.00;;;;;;4995518;28;20439;-70
2023/03/04 04:28:20;;;;;;;2.00;1.90;;;18.90;35.90;;;;;;4989197;28;20251;-70
2023/03/04 04:30:46;;;;;;;1.80;1.70;;;19.00;36.00;;;;;;4993518;28;20542;-69
2023/03/04 04:33:11;;;;;;;2.07;1.97;;;19.00;36.00;;;;;;4997425;28;20215;-70
2023/03/04 04:35:37;;;;;;;2.50;1.73;;;19.00;36.00;;;;;;4999164;28;20224;-69
2023/03/04 04:38:04;;;;;;;2.33;2.13;;;18.90;35.90;;;;;;4991317;28;20773;-69
2023/03/04 04:40:29;;;;;;;3.50;2.60;;;19.00;36.00;;;;;;4998483;28;20444;-71
2023/03/04 04:42:55;;;;;;;2.13;1.97;;;19.00;36.00;;;;;;4994477;28;20442;-68
2023/03/04 04:45:23;;;;;;;2.00;1.90;;;19.00;36.00;;;;;;4994157;28;20745;-71
2023/03/04 04:47:49;;;;;;;2.37;2.17;;;19.00;36.00;;;;;;4997759;28;20916;-69
2023/03/04 04:50:15;;;;;;;2.10;1.77;;;19.00;36.00;;;;;;4985753;28;20474;-70
2023/03/04 04:52:40;;;;;;;2.00;1.80;;;19.00;35.90;;;;;;4988730;28;20439;-71
2023/03/04 04:55:06;;;;;;;2.00;1.80;;;19.00;36.00;;;;;;5018160;28;20216;-70
2023/03/04 04:57:33;;;;;;;1.90;1.80;;;19.00;35.90;;;;;;4982876;28;20228;-71
2023/03/04 04:59:58;;;;;;;1.83;1.73;;;19.00;35.90;;;;;;4985432;28;20225;-71
2023/03/04 05:02:24;;;;;;;2.07;1.87;;;19.00;35.90;;;;;;4992590;28;20461;-72
2023/03/04 05:04:49;;;;;;;1.67;1.57;;;19.00;35.90;;;;;;4981946;28;20219;-71
2023/03/04 05:07:15;;;;;;;1.57;1.47;;;19.00;35.90;;;;;;5000565;28;20230;-72
2023/03/04 05:09:40;;;;;;;2.40;2.20;;;19.00;35.90;;;;;;4990061;28;20239;-72
2023/03/04 05:12:06;;;;;;;1.80;1.70;;;19.00;35.90;;;;;;4987034;28;20236;-72
2023/03/04 05:14:32;;;;;;;1.60;1.50;;;19.00;36.10;;;;;;4983315;28;20691;-71
2023/03/04 05:16:57;;;;;;;1.73;1.63;;;19.00;35.80;;;;;;4998211;28;20228;-72
2023/03/04 05:19:23;;;;;;;1.70;1.60;;;19.00;35.90;;;;;;4993097;28;20234;-71
2023/03/04 05:21:48;;;;;;;1.50;1.40;;;19.00;35.80;;;;;;4990808;28;20224;-71
2023/03/04 05:24:14;;;;;;;1.70;1.60;;;19.00;35.90;;;;;;4995889;28;20285;-71
2023/03/04 05:26:39;;;;;;;1.60;1.50;;;19.00;35.90;;;;;;4993354;28;20231;-71
2023/03/04 05:29:05;;;;;;;1.90;1.60;;;19.00;35.90;;;;;;4988786;28;20220;-70
2023/03/04 05:31:30;;;;;;;1.93;1.50;;;19.00;35.80;;;;;;4985399;28;20324;-71
2023/03/04 05:33:56;;;;;;;2.00;1.53;;;19.00;35.80;;;;;;4987707;28;20657;-71
2023/03/04 05:36:21;;;;;;;3.90;1.70;;;19.00;35.80;;;;;;4993142;28;20255;-70
2023/03/04 05:38:47;;;;;;;1.70;1.60;;;19.00;35.90;;;;;;4996439;28;20253;-69
2023/03/04 05:41:13;;;;;;;1.57;1.47;;;19.00;35.80;;;;;;4982217;28;20219;-70
2023/03/04 05:43:41;;;;;;;1.60;1.50;;;19.00;35.80;;;;;;4997215;28;20328;-70
2023/03/04 05:46:10;;;;;;;1.47;1.37;;;19.00;35.80;;;;;;4998720;28;20239;-70
2023/03/04 05:48:36;;;;;;;1.70;1.57;;;19.00;35.90;;;;;;4983364;28;20462;-70
2023/03/04 05:51:01;;;;;;;1.30;1.20;;;19.00;35.80;;;;;;4997328;28;20474;-70
2023/03/04 05:53:28;;;;;;;1.53;1.43;;;19.00;35.80;;;;;;4999085;28;20602;-69
2023/03/04 05:55:54;;;;;;;1.60;1.40;;;19.00;35.80;;;;;;4992735;28;20231;-69
2023/03/04 05:58:20;;;;;;;1.33;1.23;;;19.00;35.80;;;;;;4989591;28;20460;-69
2023/03/04 06:00:46;;;;;;;1.47;1.37;;;19.00;35.80;;;;;;4981144;28;20227;-69
2023/03/04 06:03:20;;;;;;;1.50;1.40;;;19.00;35.80;;;;;;4985271;28;20227;-69
2023/03/04 06:05:45;;;;;;;1.30;1.20;;;19.00;35.80;;;;;;4998127;28;20431;-67
2023/03/04 06:08:11;;;;;;;2.47;1.43;;;19.00;35.80;;;;;;4990181;28;20788;-68
2023/03/04 06:10:39;;;;;;;1.87;1.50;;;19.00;35.80;;;;;;4997057;28;20632;-69
2023/03/04 06:13:05;;;;;;;2.17;1.70;;;19.00;35.80;;;;;;4998216;28;20460;-69
2023/03/04 06:15:31;;;;;;;1.47;1.37;;;19.00;35.80;;;;;;4991564;28;20473;-67
2023/03/04 06:17:56;;;;;;;1.40;1.30;;;19.00;35.80;;;;;;4990869;28;20415;-69
2023/03/04 06:20:22;;;;;;;1.70;1.60;;;19.00;35.80;;;;;;4989388;28;20250;-69
2023/03/04 06:22:47;;;;;;;1.60;1.50;;;19.00;35.70;;;;;;4989357;28;20224;-69
2023/03/04 06:25:13;;;;;;;1.50;1.40;;;19.00;35.70;;;;;;4999214;28;20223;-69
2023/03/04 06:27:39;;;;;;;1.47;1.37;;;19.00;35.70;;;;;;4983462;28;20230;-70
2023/03/04 06:30:05;;;;;;;1.40;1.30;;;19.00;35.70;;;;;;4984656;28;20251;-69
2023/03/04 06:32:31;;;;;;;2.80;1.50;;;19.10;35.70;;;;;;4987412;28;20235;-68
2023/03/04 06:34:56;;;;;;;1.63;1.37;;;19.10;35.70;;;;;;4990187;28;21048;-69
2023/03/04 06:37:22;;;;;;;1.53;1.43;;;19.10;35.70;;;;;;4995326;28;21507;-68
2023/03/04 06:39:48;;;;;;;1.70;1.40;;;19.10;35.60;;;;;;4984894;28;20648;-67
2023/03/04 06:42:14;;;;;;;1.50;1.40;;;19.10;35.70;;;;;;4994326;28;20223;-67
2023/03/04 06:44:40;;;;;;;1.50;1.30;;;19.00;35.60;;;;;;4982400;28;20231;-69
2023/03/04 06:47:06;;;;;;;1.30;1.20;;;19.10;35.70;;;;;;4983141;28;20452;-68
2023/03/04 06:49:31;;;;;;;1.90;1.57;;;19.10;35.70;;;;;;4985141;28;20330;-67
2023/03/04 06:51:57;;;;;;;1.60;1.30;;;19.10;35.70;;;;;;4985186;28;20440;-68
2023/03/04 06:54:22;;;;;;;1.20;1.10;;;19.10;35.70;;;;;;4991387;28;20214;-67
2023/03/04 06:56:48;;;;;;;1.70;1.40;;;19.10;35.70;;;;;;4996364;28;20687;-67
2023/03/04 06:59:15;;;;;;;1.53;1.20;;;19.10;35.70;;;;;;4990492;28;20308;-67
2023/03/04 07:01:40;;;;;;;1.20;1.10;;;19.00;35.70;;;;;;4989957;28;20626;-68
2023/03/04 07:04:06;;;;;;;1.83;1.20;;;19.00;35.70;;;;;;4984992;28;21128;-69
2023/03/04 07:06:32;;;;;;;1.53;1.20;;;19.00;35.70;;;;;;4993198;28;20219;-69
2023/03/04 07:08:58;;;;;;;1.30;1.20;;;19.00;35.70;;;;;;4991190;28;21144;-68
2023/03/04 07:11:24;;;;;;;1.43;1.30;;;19.00;35.80;;;;;;4992285;28;20235;-68
2023/03/04 07:13:50;;;;;;;1.33;1.23;;;19.00;35.70;;;;;;4992898;28;20633;-68
2023/03/04 07:16:18;;;;;;;1.10;1.00;;;19.00;35.70;;;;;;4983125;28;20215;-69
2023/03/04 07:18:45;;;;;;;1.13;1.03;;;19.00;35.70;;;;;;4992576;28;20961;-72
2023/03/04 07:21:12;;;;;;;1.40;1.30;;;19.00;35.80;;;;;;4996086;28;20461;-68
2023/03/04 07:23:38;;;;;;;1.23;1.13;;;19.00;35.80;;;;;;4990109;28;20452;-72
2023/03/04 07:26:04;;;;;;;1.37;1.27;;;19.00;35.80;;;;;;4993773;28;20435;-74
2023/03/04 07:28:30;;;;;;;1.00;0.90;;;19.00;35.80;;;;;;4999098;28;20235;-76
2023/03/04 07:30:55;;;;;;;1.20;1.10;;;19.00;35.80;;;;;;4988669;28;20482;-73
2023/03/04 07:33:21;;;;;;;1.33;1.23;;;19.00;35.70;;;;;;4988825;28;20690;-69
2023/03/04 07:35:46;;;;;;;1.27;1.17;;;19.00;35.70;;;;;;4991823;28;20302;-76
2023/03/04 07:38:12;;;;;;;1.33;1.10;;;19.00;35.80;;;;;;4986831;28;20223;-70
2023/03/04 07:40:38;;;;;;;1.43;1.10;;;19.00;35.70;;;;;;4990617;28;20227;-76
2023/03/04 07:43:03;;;;;;;2.07;1.20;;;19.00;35.80;;;;;;4990454;28;20223;-73
2023/03/04 07:45:29;;;;;;;1.10;1.00;;;19.00;35.70;;;;;;4990040;28;21303;-76
2023/03/04 07:47:56;;;;;;;1.97;1.30;;;19.00;35.80;;;;;;4995628;28;20832;-71
2023/03/04 07:50:22;;;;;;;1.97;1.40;;;19.00;35.80;;;;;;4999588;28;20227;-74
2023/03/04 07:52:49;;;;;;;1.40;1.30;;;19.00;35.80;;;;;;4995671;28;20447;-75
2023/03/04 07:55:16;;;;;;;1.40;1.30;;;19.00;35.70;;;;;;4997621;28;20310;-74
2023/03/04 07:57:43;;;;;;;2.20;1.33;;;19.00;35.70;;;;;;5002241;28;20435;-73
2023/03/04 08:00:11;;;;;;;1.07;0.97;;;19.00;35.80;;;;;;4978889;28;20481;-71
2023/03/04 08:02:36;;;;;;;2.50;1.10;;;19.00;35.80;;;;;;4991347;28;20568;-75
2023/03/04 08:05:02;;;;;;;1.40;1.30;;;19.00;36.50;;;;;;4988589;28;20842;-75
2023/03/04 08:07:28;;;;;;;1.83;1.27;;;19.00;35.80;;;;;;4994884;28;20232;-75
2023/03/04 08:09:53;;;;;;;1.40;1.10;;;19.00;35.80;;;;;;4989866;28;20239;-73
2023/03/04 08:12:19;;;;;;;2.10;0.97;;;19.00;35.80;;;;;;5000539;28;20235;-67
2023/03/04 08:14:44;;;;;;;1.37;1.27;;;19.00;35.70;;;;;;5013477;28;20251;-76
2023/03/04 08:17:13;;;;;;;1.57;1.10;;;19.00;35.70;;;;;;5005989;28;20262;-75
2023/03/04 08:19:39;;;;;;;1.70;1.13;;;19.00;35.70;;;;;;4989897;28;20222;-75
2023/03/04 08:22:04;;;;;;;1.37;0.90;;;19.00;35.70;;;;;;4999835;28;20445;-75
2023/03/04 08:24:30;;;;;;;1.40;1.30;;;19.00;35.70;;;;;;4997395;28;20230;-75
2023/03/04 08:26:56;;;;;;;1.43;1.20;;;19.00;35.70;;;;;;4995634;28;20301;-76
2023/03/04 08:29:23;;;;;;;1.57;1.47;;;19.00;35.70;;;;;;5001223;28;20228;-74
2023/03/04 08:31:50;;;;;;;1.27;1.07;;;19.00;35.80;;;;;;4994922;28;20240;-73
2023/03/04 08:34:17;;;;;;;1.40;1.10;;;19.00;35.70;;;;;;4990410;28;20441;-72
2023/03/04 08:36:43;;;;;;;1.03;0.93;;;19.00;35.70;;;;;;4983640;28;20883;-74
2023/03/04 08:39:11;;;;;;;2.07;1.20;;;19.00;35.70;;;;;;4987850;28;20422;-68
2023/03/04 08:41:37;;;;;;;5.33;1.63;;;19.00;35.70;;;;;;5004231;28;20224;-77
2023/03/04 08:44:03;;;;;;;5.47;1.40;;;19.00;35.70;;;;;;4992616;28;20468;-81
2023/03/04 08:46:28;;;;;;;5.73;1.40;;;19.00;35.80;;;;;;4994813;28;20274;-73
2023/03/04 08:48:54;;;;;;;4.80;1.20;;;19.00;35.70;;;;;;4994864;28;20532;-77
2023/03/04 08:51:19;;;;;;;2.50;1.30;;;19.00;35.70;;;;;;4988823;28;20231;-78
2023/03/04 08:53:45;;;;;;;5.47;1.10;;;19.00;35.60;;;;;;5000296;28;20255;-79
2023/03/04 08:56:12;;;;;;;2.30;1.20;;;19.00;35.60;;;;;;5001995;28;20227;-73
2023/03/04 08:58:37;;;;;;;3.83;1.30;;;19.00;35.60;;;;;;4992637;28;20216;-77
2023/03/04 09:01:03;;;;;;;1.57;1.17;;;19.00;35.60;;;;;;4995934;28;20487;-73
2023/03/04 09:03:29;;;;;;;3.80;1.30;;;19.00;35.60;;;;;;4998162;28;20653;-78
2023/03/04 09:05:55;;;;;;;4.50;1.53;;;19.00;35.60;;;;;;5001137;28;20467;-78
2023/03/04 09:08:20;;;;;;;0.90;0.80;;;19.10;35.60;;;;;;4994853;28;20568;-74
2023/03/04 09:10:46;;;;;;;2.83;1.30;;;19.10;35.60;;;;;;5000635;28;20223;-76
2023/03/04 09:13:15;;;;;;;1.10;1.00;;;19.10;35.60;;;;;;4994720;28;20302;-71
2023/03/04 09:15:45;;;;;;;1.83;1.07;;;19.10;35.60;;;;;;4996901;28;20282;-77
2023/03/04 09:18:11;;;;;;;2.33;1.10;;;19.10;35.60;;;;;;4988555;28;20431;-76
2023/03/04 09:20:37;;;;;;;3.23;1.20;;;19.10;35.60;;;;;;4998744;28;20435;-77
2023/03/04 09:23:03;;;;;;;1.77;1.33;;;19.10;35.60;;;;;;4995977;28;20261;-77
2023/03/04 09:25:28;;;;;;;1.80;1.27;;;19.10;35.70;;;;;;4990999;28;20232;-74
2023/03/04 09:27:54;;;;;;;1.23;1.13;;;19.10;35.70;;;;;;4993287;28;20219;-73
2023/03/04 09:30:20;;;;;;;2.10;1.07;;;19.10;35.70;;;;;;4998161;28;20215;-73
2023/03/04 09:32:45;;;;;;;1.20;1.03;;;19.00;35.60;;;;;;4992339;28;20240;-76
2023/03/04 09:35:11;;;;;;;1.20;1.03;;;19.10;35.70;;;;;;4998169;28;20637;-75
2023/03/04 09:37:36;;;;;;;2.37;1.17;;;19.10;35.60;;;;;;4987592;28;20309;-78
2023/03/04 09:40:04;;;;;;;1.10;1.00;;;19.10;35.70;;;;;;4994880;28;20224;-79
2023/03/04 09:42:46;;;;;;;1.90;1.20;;;19.10;35.70;;;;;;4995013;28;20235;-78
2023/03/04 09:45:17;;;;;;;1.10;1.00;;;19.10;35.70;;;;;;4993459;28;20448;-79
2023/03/04 09:47:45;;;;;;;1.13;0.93;;;19.10;35.70;;;;;;5002739;28;20439;-75
2023/03/04 09:50:11;;;;;;;1.07;0.93;;;19.00;35.70;;;;;;5000441;28;20430;-78
2023/03/04 09:52:42;;;;;;;4.10;1.07;;;19.10;35.70;;;;;;4996463;28;20451;-74
2023/03/04 09:55:20;;;;;;;1.00;0.90;;;19.10;35.70;;;;;;4980901;28;20457;-75
2023/03/04 09:58:06;;;;;;;1.87;1.30;;;19.00;35.70;;;;;;4994008;28;20423;-77
2023/03/04 10:00:39;;;;;;;1.00;0.80;;;19.10;35.80;;;;;;4999591;28;20435;-77
2023/03/04 10:03:05;;;;;;;1.43;1.00;;;19.00;35.70;;;;;;4998708;28;20456;-74
2023/03/04 10:05:35;;;;;;;2.00;0.87;;;19.00;35.70;;;;;;4982094;28;20606;-72
2023/03/04 10:08:17;;;;;;;1.10;1.00;;;19.00;35.70;;;;;;4988576;28;20315;-78
2023/03/04 10:10:44;;;;;;;2.63;1.20;;;19.00;35.70;;;;;;4976177;28;20424;-80
2023/03/04 10:13:30;;;;;;;1.27;1.17;;;19.00;35.70;;;;;;4992039;28;20481;-84
2023/03/04 10:15:58;;;;;;;4.50;1.13;;;19.10;35.70;;;;;;4996036;28;20853;-70
2023/03/04 10:18:29;;;;;;;1.30;1.00;;;19.10;35.70;;;;;;4995020;28;20541;-77
2023/03/04 10:21:26;;;;;;;1.27;1.17;;;19.00;35.70;;;;;;4995554;28;20508;-74
2023/03/04 10:23:53;;;;;;;1.10;0.90;;;19.10;35.70;;;;;;4997940;28;20478;-81
2023/03/04 10:26:20;;;;;;;1.10;1.00;;;19.00;35.60;;;;;;4986385;28;20440;-75
2023/03/04 10:28:47;;;;;;;1.10;0.90;;;19.10;35.70;;;;;;4991867;28;20550;-70
2023/03/04 10:31:15;;;;;;;1.10;1.00;;;19.10;35.70;;;;;;4972422;28;20887;-68
2023/03/04 10:33:41;;;;;;;1.30;0.93;;;19.10;35.70;;;;;;4989320;28;21134;-76
2023/03/04 10:36:29;;;;;;;2.30;0.80;;;19.10;35.70;;;;;;4996163;28;20449;-69
2023/03/04 10:39:01;;;;;;;0.97;0.87;;;19.10;35.70;;;;;;4997206;28;20465;-70
2023/03/04 10:41:28;;;;;;;1.10;0.90;;;19.10;35.70;;;;;;4994316;28;20931;-70
2023/03/04 10:44:02;;;;;;;1.40;0.90;;;19.10;35.70;;;;;;4999536;28;20449;-69
2023/03/04 10:46:28;;;;;;;1.10;1.00;;;19.10;35.70;;;;;;4999777;28;21213;-70
2023/03/04 10:48:54;;;;;;;1.20;1.10;;;19.10;35.70;;;;;;4988980;28;20937;-68
2023/03/04 10:51:21;;;;;;;1.17;1.07;;;19.10;35.70;;;;;;4986426;28;20974;-67
2023/03/04 10:53:50;;;;;;;3.20;1.53;;;19.10;35.70;;;;;;4996202;28;20950;-69
2023/03/04 10:56:51;;;;;;;1.27;0.90;;;19.10;35.70;;;;;;5000665;28;20420;-69
2023/03/04 10:59:53;;;;;;;1.27;0.90;;;19.10;35.70;;;;;;4998583;28;20427;-69
2023/03/04 11:02:34;;;;;;;1.00;0.87;;;19.10;35.60;;;;;;4999457;28;20455;-70
2023/03/04 11:05:08;;;;;;;1.73;0.90;;;19.10;35.70;;;;;;4982572;28;20549;-70
2023/03/04 11:07:52;;;;;;;1.20;0.97;;;19.00;35.60;;;;;;4995337;28;20446;-69
2023/03/04 11:10:19;;;;;;;0.93;0.87;;;19.10;35.70;;;;;;4998302;28;20457;-69
2023/03/04 11:13:14;;;;;;;1.53;0.90;;;19.00;35.60;;;;;;5000621;28;20453;-70
2023/03/04 11:15:50;;;;;;;1.83;0.80;;;19.10;35.70;;;;;;4998378;28;20431;-69
2023/03/04 11:18:22;;;;;;;0.93;0.83;;;19.00;35.60;;;;;;4995684;28;20907;-69
2023/03/04 11:20:49;;;;;;;1.00;0.90;;;19.00;35.70;;;;;;4996343;28;20521;-69
2023/03/04 11:23:27;;;;;;;1.00;0.80;;;19.00;35.70;;;;;;4992699;28;20439;-67
2023/03/04 11:26:15;;;;;;;1.80;0.90;;;19.00;35.60;;;;;;4998387;28;20431;-69
2023/03/04 11:28:53;;;;;;;1.20;1.00;;;19.00;35.60;;;;;;4997526;28;20449;-73
2023/03/04 11:31:40;;;;;;;2.43;1.17;;;19.00;35.70;;;;;;4999452;28;20456;-74
2023/03/04 11:34:18;;;;;;;1.57;1.00;;;19.00;35.60;;;;;;4997412;28;20457;-75
2023/03/04 11:37:23;;;;;;;1.37;0.90;;;19.00;35.60;;;;;;5004725;28;20437;-75
2023/03/04 11:39:53;;;;;;;2.07;1.20;;;19.00;35.60;;;;;;5003782;28;20931;-79
2023/03/04 11:42:53;;;;;;;1.00;0.80;;;19.00;35.60;;;;;;4986028;28;20444;-78
2023/03/04 11:45:30;;;;;;;1.03;0.93;;;19.00;35.60;;;;;;4995209;28;20458;-76
2023/03/04 11:48:05;;;;;;;1.63;1.00;;;19.00;35.60;;;;;;4988349;28;20553;-68
2023/03/04 11:50:52;;;;;;;1.10;0.80;;;19.00;35.70;;;;;;4987439;28;20465;-79
2023/03/04 11:53:30;;;;;;;1.20;1.03;;;19.00;35.60;;;;;;4998631;28;20519;-77
2023/03/04 11:56:19;;;;;;;0.97;0.90;;;19.00;35.60;;;;;;4990633;28;21056;-76
2023/03/04 11:59:01;;;;;;;1.10;0.90;;;19.00;35.60;;;;;;4983735;28;21196;-78
2023/03/04 12:01:29;;;;;;;1.00;0.87;;;19.00;35.60;;;;;;4994391;28;20983;-77
2023/03/04 12:04:32;;;;;;;1.70;1.07;;;19.00;35.70;;;;;;4984234;28;20542;-71
2023/03/04 12:07:10;;;;;;;1.63;0.87;;;19.00;35.70;;;;;;4981789;28;20453;-72
2023/03/04 12:10:09;;;;;;;1.17;1.00;;;19.00;35.70;;;;;;4990949;28;20585;-71
2023/03/04 12:13:01;;;;;;;1.20;0.90;;;19.00;35.70;;;;;;5000992;28;20486;-78
2023/03/04 12:15:54;;;;;;;1.30;0.87;;;19.00;35.70;;;;;;4999679;28;20965;-79
2023/03/04 12:18:28;;;;;;;0.80;0.80;;;19.00;35.70;;;;;;4997041;28;20440;-75
2023/03/04 12:21:02;;;;;;;1.37;1.03;;;19.00;35.70;;;;;;4999902;28;20466;-72
2023/03/04 12:24:07;;;;;;;0.87;0.80;;;19.00;35.70;;;;;;5024183;28;21399;-76
2023/03/04 12:26:58;;;;;;;1.00;0.90;;;19.00;35.70;;;;;;4999451;28;20496;-79
2023/03/04 12:29:47;;;;;;;0.90;0.80;;;19.00;35.70;;;;;;4993142;28;21484;-73
2023/03/04 12:32:13;;;;;;;1.10;0.93;;;19.00;35.70;;;;;;4996037;28;20438;-76
2023/03/04 12:34:53;;;;;;;1.00;0.90;;;19.00;35.70;;;;;;4982659;28;20435;-78
2023/03/04 12:37:28;;;;;;;1.10;1.00;;;19.00;35.70;;;;;;5004031;28;20300;-77
2023/03/04 12:40:12;;;;;;;1.20;0.90;;;19.00;35.70;;;;;;4991862;28;20466;-77
2023/03/04 12:43:06;;;;;;;1.03;0.90;;;19.00;35.70;;;;;;4997921;28;20791;-73
2023/03/04 12:46:02;;;;;;;0.80;0.70;;;19.00;35.70;;;;;;5001269;28;20565;-78
2023/03/04 12:48:39;;;;;;;1.10;0.83;;;19.00;35.70;;;;;;4982265;28;20463;-70
2023/03/04 12:51:40;;;;;;;0.90;0.80;;;19.00;35.70;;;;;;4983667;28;20952;-71
2023/03/04 12:54:19;;;;;;;1.00;0.87;;;19.00;35.70;;;;;;4977649;28;20482;-74
2023/03/04 12:57:01;;;;;;;0.90;0.73;;;19.00;35.70;;;;;;4994261;28;20924;-69
2023/03/04 12:59:34;;;;;;;1.43;0.97;;;19.00;36.50;;;;;;4987737;28;20439;-76